Archer, Idaho
Current Conditions -  °F | °C
As of 6:53 AM on Thursday 23 Oct 2014 (Local Time) from KRXE Reporting Station
Overcast Overcast  
Wind Chill: 39°   Ceiling: 12000
Heat Index: 39°   Visibility: 10mi
Dew Point: 32°   Wind: 3mph
Humidity: 76%   Direction: 60°ENE
Pressure: 30.1"   Gusts: NA
Location:  43.7568°N, 111.624°W
Report Text: KRXE 231253Z AUTO 06003KT 10SM OVC120 04/00 A3010 RMK AO2 SLP195 T00390000
Loading
Personal Weather Stations






























Interactive Weather Map
Tropical Storm Tracking
New forecast layout! Learn more

10-Day Weather Forecast

Advertisements
Track Severe Weather on mobile